createdAt,value
2022-11-29T00:01:03.372Z,102658.31
2022-11-29T00:03:31.208Z,102660.16
2022-11-29T00:06:04.020Z,102660.66
2022-11-29T00:08:31.355Z,102667.25
2022-11-29T00:11:03.106Z,102672.38
2022-11-29T00:13:30.735Z,102662.50
2022-11-29T00:16:01.799Z,102661.31
2022-11-29T00:18:29.094Z,102656.41
2022-11-29T00:20:56.401Z,102661.31
2022-11-29T00:23:23.606Z,102661.78
2022-11-29T00:25:51.053Z,102646.91
2022-11-29T00:28:18.420Z,102644.47
2022-11-29T00:30:45.656Z,102642.53
2022-11-29T00:33:12.960Z,102644.13
2022-11-29T00:35:40.229Z,102647.59
2022-11-29T00:38:07.677Z,102649.19
2022-11-29T00:40:34.869Z,102644.84
2022-11-29T00:43:02.179Z,102636.78
2022-11-29T00:45:29.469Z,102644.13
2022-11-29T00:47:56.786Z,102641.97
2022-11-29T00:50:24.057Z,102645.75
2022-11-29T00:52:51.262Z,102645.63
2022-11-29T00:55:18.562Z,102645.50
2022-11-29T00:57:45.921Z,102645.97
2022-11-29T01:00:13.418Z,102641.81
2022-11-29T01:02:40.657Z,102644.31
2022-11-29T01:05:08.156Z,102640.09
2022-11-29T01:07:35.502Z,102639.28
2022-11-29T01:10:02.790Z,102646.16
2022-11-29T01:12:30.055Z,102646.16
2022-11-29T01:14:58.372Z,102642.13
2022-11-29T01:17:25.653Z,102633.50
2022-11-29T01:19:53.053Z,102641.06
2022-11-29T01:22:20.290Z,102639.91
2022-11-29T01:24:47.525Z,102642.34
2022-11-29T01:27:14.972Z,102645.38
2022-11-29T01:29:42.230Z,102641.50
2022-11-29T01:32:09.687Z,102650.69
2022-11-29T01:34:37.374Z,102649.38
2022-11-29T01:37:04.828Z,102638.91
2022-11-29T01:39:32.029Z,102635.72
2022-11-29T01:42:00.881Z,102642.41
2022-11-29T01:44:29.204Z,102646.97
2022-11-29T01:46:57.152Z,102646.38
2022-11-29T01:49:27.283Z,102646.22
2022-11-29T01:51:58.103Z,102643.47
2022-11-29T01:54:25.705Z,102655.13
2022-11-29T01:56:53.243Z,102654.69
2022-11-29T01:59:22.024Z,102653.91
2022-11-29T02:01:49.405Z,102656.44
2022-11-29T02:04:18.101Z,102651.06
2022-11-29T02:06:45.873Z,102654.09
2022-11-29T02:09:20.056Z,102663.19
2022-11-29T02:11:47.358Z,102657.56
2022-11-29T02:14:43.944Z,102649.31
2022-11-29T02:17:22.561Z,102665.00
2022-11-29T02:20:08.751Z,102652.16
2022-11-29T02:22:48.825Z,102659.22
2022-11-29T02:25:16.060Z,102660.31
2022-11-29T02:27:46.333Z,102657.34
2022-11-29T02:30:19.963Z,102654.59
2022-11-29T02:33:05.914Z,102663.94
2022-11-29T02:35:36.063Z,102656.94
2022-11-29T02:38:23.750Z,102658.16
2022-11-29T02:41:01.119Z,102661.47
2022-11-29T02:43:37.532Z,102667.03
2022-11-29T02:46:22.984Z,102662.97
2022-11-29T02:48:58.090Z,102663.75
2022-11-29T02:51:49.768Z,102669.94
2022-11-29T02:54:16.923Z,102666.25
2022-11-29T02:56:47.773Z,102663.34
2022-11-29T02:59:21.170Z,102664.75
2022-11-29T03:01:54.522Z,102658.13
2022-11-29T03:04:31.960Z,102656.41
2022-11-29T03:07:05.359Z,102665.34
2022-11-29T03:09:32.969Z,102659.00
2022-11-29T03:12:00.230Z,102659.94
2022-11-29T03:14:31.151Z,102660.03
2022-11-29T03:17:16.979Z,102655.31
2022-11-29T03:19:55.612Z,102651.56
2022-11-29T03:22:23.026Z,102652.44
2022-11-29T03:25:02.653Z,102651.47
2022-11-29T03:27:39.718Z,102651.06
2022-11-29T03:30:10.092Z,102661.72
2022-11-29T03:32:41.039Z,102658.22
2022-11-29T03:35:25.502Z,102655.66
2022-11-29T03:37:58.998Z,102662.69
2022-11-29T03:40:44.703Z,102658.34
2022-11-29T03:43:35.095Z,102662.72
2022-11-29T03:46:08.634Z,102672.19
2022-11-29T03:49:05.579Z,102682.19
2022-11-29T03:51:41.744Z,102683.31
2022-11-29T03:54:16.149Z,102683.94
2022-11-29T03:56:43.630Z,102683.72
2022-11-29T03:59:13.582Z,102693.25
2022-11-29T04:01:44.112Z,102692.72
2022-11-29T04:04:37.665Z,102699.97
2022-11-29T04:07:28.539Z,102698.84
2022-11-29T04:10:14.527Z,102694.06
2022-11-29T04:12:59.092Z,102690.75
2022-11-29T04:15:45.114Z,102694.78
2022-11-29T04:18:12.464Z,102702.59
2022-11-29T04:20:48.720Z,102706.59
2022-11-29T04:23:35.181Z,102706.72
2022-11-29T04:26:02.398Z,102709.94
2022-11-29T04:28:29.591Z,102708.63
2022-11-29T04:31:09.124Z,102707.81
2022-11-29T04:33:39.487Z,102720.81
2022-11-29T04:36:14.316Z,102715.75
2022-11-29T04:38:48.076Z,102721.13
2022-11-29T04:41:21.542Z,102724.34
2022-11-29T04:43:48.746Z,102719.25
2022-11-29T04:46:34.825Z,102719.06
2022-11-29T04:49:05.253Z,102725.31
2022-11-29T04:51:47.902Z,102721.13
2022-11-29T04:54:27.372Z,102719.34
2022-11-29T04:56:59.792Z,102711.44
2022-11-29T04:59:33.006Z,102721.00
2022-11-29T05:02:19.221Z,102716.75
2022-11-29T05:05:06.779Z,102727.69
2022-11-29T05:07:57.680Z,102719.19
2022-11-29T05:10:31.399Z,102717.44
2022-11-29T05:12:58.726Z,102721.22
2022-11-29T05:15:25.911Z,102720.34
2022-11-29T05:17:58.814Z,102722.94
2022-11-29T05:20:28.996Z,102724.56
2022-11-29T05:23:07.522Z,102728.91
2022-11-29T05:25:40.071Z,102725.78
2022-11-29T05:28:12.450Z,102728.03
2022-11-29T05:30:45.860Z,102733.16
2022-11-29T05:33:32.325Z,102730.66
2022-11-29T05:36:11.659Z,102739.25
2022-11-29T05:39:00.891Z,102743.66
2022-11-29T05:41:51.181Z,102746.50
2022-11-29T05:44:18.561Z,102747.09
2022-11-29T05:46:58.156Z,102749.16
2022-11-29T05:49:28.342Z,102750.97
2022-11-29T05:52:19.276Z,102754.69
2022-11-29T05:54:49.622Z,102752.97
2022-11-29T05:57:23.062Z,102757.00
2022-11-29T05:59:51.328Z,102757.72
2022-11-29T06:02:27.808Z,102754.53
2022-11-29T06:05:01.060Z,102759.66
2022-11-29T06:07:37.395Z,102759.88
2022-11-29T06:10:12.796Z,102761.44
2022-11-29T06:12:42.729Z,102770.19
2022-11-29T06:15:39.622Z,102773.88
2022-11-29T06:18:22.219Z,102771.16
2022-11-29T06:21:08.219Z,102774.44
2022-11-29T06:23:50.836Z,102779.44
2022-11-29T06:26:18.255Z,102773.44
2022-11-29T06:29:04.072Z,102785.34
2022-11-29T06:31:38.802Z,102773.00
2022-11-29T06:34:30.702Z,102774.00
2022-11-29T06:37:05.641Z,102780.13
2022-11-29T06:39:33.069Z,102789.72
2022-11-29T06:42:00.320Z,102780.84
2022-11-29T06:44:27.828Z,102784.41
2022-11-29T06:47:00.951Z,102784.41
2022-11-29T06:49:34.727Z,102791.09
2022-11-29T06:52:01.938Z,102786.91
2022-11-29T06:54:48.167Z,102795.31
2022-11-29T06:57:18.404Z,102800.16
2022-11-29T06:59:48.507Z,102796.84
2022-11-29T07:02:42.247Z,102809.94
2022-11-29T07:05:09.544Z,102806.38
2022-11-29T07:07:36.915Z,102805.72
2022-11-29T07:10:06.072Z,102803.03
2022-11-29T07:12:34.899Z,102808.56
2022-11-29T07:15:02.233Z,102803.16
2022-11-29T07:17:40.063Z,102806.09
2022-11-29T07:20:22.568Z,102806.75
2022-11-29T07:22:56.088Z,102800.56
2022-11-29T07:25:42.155Z,102807.63
2022-11-29T07:28:15.311Z,102809.31
2022-11-29T07:30:51.099Z,102815.06
2022-11-29T07:33:42.320Z,102807.72
2022-11-29T07:36:29.003Z,102814.84
2022-11-29T07:39:16.595Z,102816.63
2022-11-29T07:41:50.541Z,102813.13
2022-11-29T07:44:28.338Z,102819.81
2022-11-29T07:46:55.628Z,102818.38
2022-11-29T07:49:22.853Z,102812.75
2022-11-29T07:51:50.254Z,102821.25
2022-11-29T07:54:18.744Z,102818.97
2022-11-29T07:56:46.470Z,102828.59
2022-11-29T07:59:14.690Z,102814.97
2022-11-29T08:01:42.299Z,102828.13
2022-11-29T08:04:09.678Z,102826.16
2022-11-29T08:06:37.040Z,102820.03
2022-11-29T08:09:04.656Z,102831.78
2022-11-29T08:11:31.995Z,102834.41
2022-11-29T08:14:00.247Z,102823.31
2022-11-29T08:16:27.886Z,102827.03
2022-11-29T08:18:55.274Z,102831.69
2022-11-29T08:21:22.952Z,102833.59
2022-11-29T08:23:51.145Z,102828.94
2022-11-29T08:26:19.096Z,102830.06
2022-11-29T08:28:51.806Z,102831.00
2022-11-29T08:31:19.822Z,102834.53
2022-11-29T08:33:47.385Z,102827.47
2022-11-29T08:36:19.150Z,102830.03
2022-11-29T08:38:46.769Z,102826.16
2022-11-29T08:41:15.341Z,102825.44
2022-11-29T08:43:43.348Z,102828.63
2022-11-29T08:46:16.707Z,102828.06
2022-11-29T08:48:46.322Z,102833.94
2022-11-29T08:51:13.812Z,102819.00
2022-11-29T08:53:41.357Z,102820.22
2022-11-29T08:56:41.583Z,102824.38
2022-11-29T08:58:57.671Z,102822.56
2022-11-29T09:01:25.133Z,102827.41
2022-11-29T09:04:06.446Z,102821.16
2022-11-29T09:06:41.244Z,102816.59
2022-11-29T09:09:08.641Z,102813.84
2022-11-29T09:11:36.629Z,102823.56
2022-11-29T09:14:05.572Z,102821.06
2022-11-29T09:16:34.350Z,102816.75
2022-11-29T09:19:01.937Z,102821.72
2022-11-29T09:21:30.538Z,102819.81
2022-11-29T09:24:01.812Z,102823.44
2022-11-29T09:26:31.384Z,102820.00
2022-11-29T09:29:01.289Z,102824.59
2022-11-29T09:31:30.071Z,102819.28
2022-11-29T09:33:57.417Z,102824.75
2022-11-29T09:36:28.471Z,102826.38
2022-11-29T09:38:57.512Z,102816.72
2022-11-29T09:41:27.544Z,102815.59
2022-11-29T09:44:00.808Z,102826.44
2022-11-29T09:46:48.267Z,102814.66
2022-11-29T09:49:35.380Z,102816.19
2022-11-29T09:52:21.099Z,102819.97
2022-11-29T09:55:14.881Z,102812.19
2022-11-29T09:57:44.136Z,102819.44
2022-11-29T10:00:16.642Z,102819.53
2022-11-29T10:02:47.863Z,102821.31
2022-11-29T10:05:15.272Z,102809.66
2022-11-29T10:07:50.828Z,102814.88
2022-11-29T10:10:18.187Z,102816.72
2022-11-29T10:12:50.678Z,102815.03
2022-11-29T10:15:40.058Z,102815.13
2022-11-29T10:18:24.001Z,102816.78
2022-11-29T10:20:53.795Z,102813.13
2022-11-29T10:23:32.090Z,102818.47
2022-11-29T10:25:59.518Z,102817.59
2022-11-29T10:28:30.632Z,102815.97
2022-11-29T10:31:18.252Z,102814.19
2022-11-29T10:33:45.972Z,102814.53
2022-11-29T10:36:21.019Z,102809.28
2022-11-29T10:38:49.203Z,102811.06
2022-11-29T10:41:19.434Z,102817.28
2022-11-29T10:43:47.780Z,102813.69
2022-11-29T10:46:19.948Z,102817.38
2022-11-29T10:48:47.407Z,102815.59
2022-11-29T10:51:16.032Z,102821.69
2022-11-29T10:53:44.774Z,102819.28
2022-11-29T10:56:18.142Z,102818.22
2022-11-29T10:58:53.409Z,102805.00
2022-11-29T11:01:21.217Z,102807.50
2022-11-29T11:03:53.370Z,102823.28
2022-11-29T11:06:22.120Z,102823.31
2022-11-29T11:08:57.029Z,102821.44
2022-11-29T11:11:33.639Z,102816.66
2022-11-29T11:14:06.083Z,102819.53
2022-11-29T11:16:37.325Z,102823.59
2022-11-29T11:19:23.682Z,102821.91
2022-11-29T11:21:51.402Z,102820.06
2022-11-29T11:24:24.384Z,102818.13
2022-11-29T11:26:52.059Z,102826.94
2022-11-29T11:29:22.182Z,102825.38
2022-11-29T11:31:54.736Z,102812.88
2022-11-29T11:34:34.422Z,102824.03
2022-11-29T11:37:20.479Z,102817.94
2022-11-29T11:39:49.903Z,102820.56
2022-11-29T11:42:37.681Z,102814.03
2022-11-29T11:45:05.118Z,102820.78
2022-11-29T11:47:35.007Z,102818.19
2022-11-29T11:50:02.664Z,102820.09
2022-11-29T11:52:39.576Z,102826.16
2022-11-29T11:55:28.296Z,102824.75
2022-11-29T11:58:03.370Z,102823.75
2022-11-29T12:01:02.392Z,102825.19
2022-11-29T12:03:31.634Z,102820.00
2022-11-29T12:06:03.270Z,102820.22
2022-11-29T12:08:30.925Z,102823.44
2022-11-29T12:11:07.022Z,102823.47
2022-11-29T12:13:37.346Z,102821.94
2022-11-29T12:16:09.008Z,102825.44
2022-11-29T12:18:40.792Z,102825.53
2022-11-29T12:21:13.220Z,102820.38
2022-11-29T12:24:00.751Z,102816.78
2022-11-29T12:26:56.340Z,102815.88
2022-11-29T12:29:22.449Z,102815.69
2022-11-29T12:32:08.614Z,102820.03
2022-11-29T12:35:14.843Z,102818.44
2022-11-29T12:37:59.914Z,102813.31
2022-11-29T12:40:39.429Z,102818.44
2022-11-29T12:43:15.991Z,102819.50
2022-11-29T12:45:55.830Z,102809.75
2022-11-29T12:48:25.974Z,102816.78
2022-11-29T12:50:56.083Z,102818.47
2022-11-29T12:53:35.828Z,102822.16
2022-11-29T12:56:18.895Z,102826.19
2022-11-29T12:58:49.320Z,102824.59
2022-11-29T13:01:16.666Z,102831.63
2022-11-29T13:03:58.875Z,102836.13
2022-11-29T13:06:31.717Z,102848.47
2022-11-29T13:09:17.809Z,102846.59
2022-11-29T13:12:03.565Z,102843.16
2022-11-29T13:14:51.128Z,102840.28
2022-11-29T13:17:34.497Z,102843.00
2022-11-29T13:20:16.636Z,102837.69
2022-11-29T13:22:57.565Z,102849.88
2022-11-29T13:25:28.035Z,102848.50
2022-11-29T13:28:03.413Z,102843.97
2022-11-29T13:30:31.363Z,102842.25
2022-11-29T13:33:15.192Z,102841.22
2022-11-29T13:35:48.706Z,102842.38
2022-11-29T13:38:23.566Z,102842.16
2022-11-29T13:41:06.926Z,102841.88
2022-11-29T13:43:43.554Z,102844.78
2022-11-29T13:46:26.345Z,102837.59
2022-11-29T13:48:54.276Z,102846.84
2022-11-29T13:51:26.183Z,102847.03
2022-11-29T13:53:54.979Z,102837.75
2022-11-29T13:56:26.395Z,102837.69
2022-11-29T13:58:54.462Z,102837.63
2022-11-29T14:01:23.439Z,102834.97
2022-11-29T14:04:07.543Z,102840.56
2022-11-29T14:06:36.243Z,102846.00
2022-11-29T14:09:18.482Z,102842.47
2022-11-29T14:11:52.671Z,102837.69
2022-11-29T14:14:26.584Z,102838.13
2022-11-29T14:16:57.936Z,102844.28
2022-11-29T14:19:32.792Z,102839.19
2022-11-29T14:22:06.775Z,102849.72
2022-11-29T14:24:37.036Z,102842.56
2022-11-29T14:27:07.767Z,102846.38
2022-11-29T14:29:50.422Z,102844.44
2022-11-29T14:32:39.301Z,102846.28
2022-11-29T14:35:10.045Z,102849.94
2022-11-29T14:37:37.261Z,102850.19
2022-11-29T14:40:15.918Z,102848.47
2022-11-29T14:42:50.201Z,102844.72
2022-11-29T14:45:23.668Z,102851.66
2022-11-29T14:47:51.980Z,102851.66
2022-11-29T14:50:34.403Z,102850.81
2022-11-29T14:53:02.314Z,102849.06
2022-11-29T14:55:31.610Z,102847.69
2022-11-29T14:58:06.050Z,102855.28
2022-11-29T15:00:38.160Z,102846.47
2022-11-29T15:03:14.019Z,102859.00
2022-11-29T15:05:46.343Z,102862.53
2022-11-29T15:08:28.514Z,102862.78
2022-11-29T15:11:01.569Z,102851.94
2022-11-29T15:13:31.855Z,102855.75
2022-11-29T15:16:11.978Z,102853.00
2022-11-29T15:18:45.384Z,102858.50
2022-11-29T15:21:18.949Z,102857.25
2022-11-29T15:23:46.189Z,102848.34
2022-11-29T15:26:22.167Z,102859.00
2022-11-29T15:28:49.422Z,102862.69
2022-11-29T15:31:19.862Z,102854.75
2022-11-29T15:33:48.855Z,102863.59
2022-11-29T15:36:16.093Z,102855.56
2022-11-29T15:38:43.312Z,102846.91
2022-11-29T15:41:30.793Z,102862.63
2022-11-29T15:44:02.270Z,102864.22
2022-11-29T15:46:30.996Z,102865.88
2022-11-29T15:49:18.068Z,102871.19
2022-11-29T15:51:48.438Z,102872.09
2022-11-29T15:54:34.292Z,102869.03
2022-11-29T15:57:10.659Z,102870.66
2022-11-29T15:59:40.709Z,102869.78
2022-11-29T16:02:28.242Z,102867.66
2022-11-29T16:05:01.405Z,102876.75
2022-11-29T16:07:32.746Z,102876.69
2022-11-29T16:10:03.049Z,102874.69
2022-11-29T16:12:30.310Z,102878.25
2022-11-29T16:14:59.055Z,102874.78
2022-11-29T16:17:33.972Z,102869.69
2022-11-29T16:20:05.414Z,102881.28
2022-11-29T16:22:32.757Z,102871.34
2022-11-29T16:25:05.145Z,102879.25
2022-11-29T16:27:35.899Z,102876.88
2022-11-29T16:30:03.994Z,102881.31
2022-11-29T16:32:32.637Z,102882.28
2022-11-29T16:35:08.635Z,102882.25
2022-11-29T16:37:39.315Z,102885.75
2022-11-29T16:40:07.000Z,102891.84
2022-11-29T16:42:34.897Z,102901.34
2022-11-29T16:45:03.787Z,102899.00
2022-11-29T16:48:00.435Z,102898.94
2022-11-29T16:50:28.757Z,102899.22
2022-11-29T16:52:57.120Z,102901.59
2022-11-29T16:55:24.630Z,102900.38
2022-11-29T16:57:52.418Z,102897.06
2022-11-29T17:00:31.670Z,102898.84
2022-11-29T17:02:59.484Z,102909.69
2022-11-29T17:05:27.276Z,102899.88
2022-11-29T17:07:54.785Z,102914.09
2022-11-29T17:10:23.959Z,102908.63
2022-11-29T17:12:51.377Z,102910.50
2022-11-29T17:15:18.799Z,102912.34
2022-11-29T17:17:46.034Z,102916.78
2022-11-29T17:20:13.867Z,102914.09
2022-11-29T17:22:41.896Z,102917.47
2022-11-29T17:25:09.866Z,102910.53
2022-11-29T17:27:37.217Z,102910.47
2022-11-29T17:30:05.952Z,102914.00
2022-11-29T17:32:33.862Z,102916.53
2022-11-29T17:35:01.211Z,102921.75
2022-11-29T17:37:31.817Z,102912.03
2022-11-29T17:39:59.089Z,102921.19
2022-11-29T17:42:26.639Z,102919.28
2022-11-29T17:44:54.136Z,102918.47
2022-11-29T17:47:21.379Z,102928.09
2022-11-29T17:49:48.865Z,102920.91
2022-11-29T17:52:16.249Z,102921.13
2022-11-29T17:54:44.180Z,102921.00
2022-11-29T17:57:11.410Z,102924.44
2022-11-29T17:59:38.720Z,102916.63
2022-11-29T18:02:06.081Z,102921.28
2022-11-29T18:04:33.368Z,102921.25
2022-11-29T18:07:01.611Z,102923.56
2022-11-29T18:09:28.892Z,102926.31
2022-11-29T18:11:56.215Z,102934.06
2022-11-29T18:14:24.110Z,102933.22
2022-11-29T18:16:51.782Z,102928.00
2022-11-29T18:19:20.196Z,102937.66
2022-11-29T18:21:48.172Z,102946.56
2022-11-29T18:24:15.480Z,102943.72
2022-11-29T18:26:43.098Z,102943.88
2022-11-29T18:29:10.605Z,102949.28
2022-11-29T18:31:39.431Z,102949.47
2022-11-29T18:34:09.676Z,102945.88
2022-11-29T18:36:43.196Z,102947.34
2022-11-29T18:39:14.087Z,102947.28
2022-11-29T18:41:43.085Z,102942.84
2022-11-29T18:44:11.654Z,102951.84
2022-11-29T18:46:39.957Z,102948.16
2022-11-29T18:49:08.591Z,102956.03
2022-11-29T18:51:36.567Z,102948.91
2022-11-29T18:54:04.275Z,102954.06
2022-11-29T18:56:32.810Z,102943.25
2022-11-29T18:59:01.507Z,102949.03
2022-11-29T19:01:29.812Z,102946.81
2022-11-29T19:03:58.286Z,102950.19
2022-11-29T19:06:27.048Z,102949.19
2022-11-29T19:08:54.719Z,102948.50
2022-11-29T19:11:23.516Z,102948.41
2022-11-29T19:13:56.312Z,102914.88
2022-11-29T19:16:24.677Z,102946.81
2022-11-29T19:18:53.047Z,102934.09
2022-11-29T19:21:21.133Z,102936.19
2022-11-29T19:23:56.249Z,102934.34
2022-11-29T19:26:24.517Z,102940.41
2022-11-29T19:28:52.358Z,102945.00
2022-11-29T19:31:20.532Z,102953.56
2022-11-29T19:33:48.030Z,102944.38
2022-11-29T19:36:17.154Z,102947.22
2022-11-29T19:38:48.860Z,102946.38
2022-11-29T19:41:21.676Z,102950.13
2022-11-29T19:43:48.981Z,102950.28
2022-11-29T19:46:17.342Z,102945.56
2022-11-29T19:48:44.680Z,102943.16
2022-11-29T19:51:12.965Z,102939.47
2022-11-29T19:53:40.359Z,102953.69
2022-11-29T19:56:09.037Z,102939.09
2022-11-29T19:58:36.597Z,102948.28
2022-11-29T20:01:08.215Z,102945.63
2022-11-29T20:03:35.611Z,102950.03
2022-11-29T20:06:03.601Z,102945.34
2022-11-29T20:08:31.147Z,102948.03
2022-11-29T20:11:08.470Z,102946.22
2022-11-29T20:13:36.303Z,102950.75
2022-11-29T20:16:04.864Z,102944.69
2022-11-29T20:18:33.173Z,102949.28
2022-11-29T20:21:04.991Z,102940.31
2022-11-29T20:23:32.706Z,102946.44
2022-11-29T20:26:00.171Z,102948.16
2022-11-29T20:28:28.292Z,102932.00
2022-11-29T20:30:55.698Z,102940.16
2022-11-29T20:33:24.335Z,102934.72
2022-11-29T20:35:57.812Z,102941.03
2022-11-29T20:38:32.746Z,102943.00
2022-11-29T20:41:03.844Z,102942.72
2022-11-29T20:44:09.511Z,102938.13
2022-11-29T20:46:36.937Z,102943.41
2022-11-29T20:49:06.684Z,102943.16
2022-11-29T20:51:41.509Z,102947.78
2022-11-29T20:54:10.411Z,102954.78
2022-11-29T20:56:37.641Z,102947.63
2022-11-29T20:59:05.029Z,102949.53
2022-11-29T21:01:32.248Z,102945.81
2022-11-29T21:03:59.509Z,102956.72
2022-11-29T21:06:26.885Z,102953.09
2022-11-29T21:08:54.368Z,102946.53
2022-11-29T21:11:21.878Z,102952.94
2022-11-29T21:13:49.335Z,102954.72
2022-11-29T21:16:16.640Z,102958.06
2022-11-29T21:18:44.339Z,102951.03
2022-11-29T21:21:22.754Z,102952.88
2022-11-29T21:23:56.977Z,102956.34
2022-11-29T21:26:30.058Z,102958.97
2022-11-29T21:29:00.171Z,102958.03
2022-11-29T21:31:27.707Z,102960.00
2022-11-29T21:33:55.163Z,102965.31
2022-11-29T21:36:22.526Z,102964.25
2022-11-29T21:38:54.880Z,102962.44
2022-11-29T21:41:23.214Z,102966.00
2022-11-29T21:44:06.094Z,102974.34
2022-11-29T21:46:35.301Z,102974.28
2022-11-29T21:49:02.607Z,102972.25
2022-11-29T21:51:29.895Z,102968.78
2022-11-29T21:53:57.111Z,102978.72
2022-11-29T21:56:24.469Z,102979.47
2022-11-29T21:58:51.725Z,102979.31
2022-11-29T22:01:19.868Z,102977.78
2022-11-29T22:03:47.750Z,102977.66
2022-11-29T22:06:18.334Z,102988.31
2022-11-29T22:08:46.354Z,102988.09
2022-11-29T22:11:14.894Z,102977.41
2022-11-29T22:14:02.715Z,102988.91
2022-11-29T22:16:30.175Z,102979.97
2022-11-29T22:18:57.528Z,102985.19
2022-11-29T22:21:24.801Z,102980.94
2022-11-29T22:23:52.335Z,102984.53
2022-11-29T22:26:19.657Z,102978.22
2022-11-29T22:28:46.875Z,102983.50
2022-11-29T22:31:14.202Z,102986.44
2022-11-29T22:33:41.646Z,102986.25
2022-11-29T22:36:10.246Z,102989.88
2022-11-29T22:38:38.016Z,102995.44
2022-11-29T22:41:06.356Z,102986.97
2022-11-29T22:43:34.268Z,102991.81
2022-11-29T22:46:09.792Z,102988.09
2022-11-29T22:48:39.181Z,102986.34
2022-11-29T22:51:06.923Z,102997.91
2022-11-29T22:53:34.917Z,102993.28
2022-11-29T22:56:02.978Z,102995.75
2022-11-29T22:58:30.383Z,102992.19
2022-11-29T23:01:05.155Z,102989.22
2022-11-29T23:03:33.320Z,102984.22
2022-11-29T23:06:07.157Z,102982.28
2022-11-29T23:08:34.997Z,102980.31
2022-11-29T23:11:04.404Z,102986.34
2022-11-29T23:13:32.479Z,102989.44
2022-11-29T23:16:00.517Z,102980.44
2022-11-29T23:18:28.278Z,102976.84
2022-11-29T23:21:03.155Z,102970.53
2022-11-29T23:23:30.880Z,102970.56
2022-11-29T23:25:58.589Z,102970.72
2022-11-29T23:28:26.483Z,102977.69
2022-11-29T23:30:54.475Z,102979.28
2022-11-29T23:33:22.346Z,102970.19
2022-11-29T23:35:50.440Z,102979.91
2022-11-29T23:38:18.439Z,102974.72
2022-11-29T23:40:45.668Z,102979.94
2022-11-29T23:43:14.426Z,102970.03
2022-11-29T23:45:42.242Z,102977.34
2022-11-29T23:48:09.631Z,102969.34
2022-11-29T23:50:37.026Z,102970.84
2022-11-29T23:53:05.088Z,102985.00
2022-11-29T23:55:32.331Z,102977.91
2022-11-29T23:58:02.475Z,102976.06
